createdAt,value
2018-07-24T00:00:16.563Z,78.60
2018-07-24T00:02:45.107Z,79.00
2018-07-24T00:05:13.526Z,79.10
2018-07-24T00:07:41.921Z,79.50
2018-07-24T00:10:10.538Z,79.90
2018-07-24T00:12:38.945Z,80.40
2018-07-24T00:15:08.022Z,80.40
2018-07-24T00:17:36.450Z,80.90
2018-07-24T00:20:07.026Z,80.90
2018-07-24T00:22:35.428Z,80.70
2018-07-24T00:25:04.297Z,80.80
2018-07-24T00:27:32.689Z,80.80
2018-07-24T00:32:29.281Z,81.00
2018-07-24T00:34:57.673Z,81.60
2018-07-24T00:37:26.088Z,82.10
2018-07-24T00:39:54.543Z,82.40
2018-07-24T00:42:22.958Z,82.20
2018-07-24T00:44:51.699Z,82.10
2018-07-24T00:47:20.120Z,82.00
2018-07-24T00:49:48.512Z,81.80
2018-07-24T00:52:16.912Z,81.80
2018-07-24T00:54:45.311Z,81.70
2018-07-24T00:57:13.737Z,81.60
2018-07-24T00:59:42.152Z,81.90
2018-07-24T01:02:10.584Z,82.30
2018-07-24T01:04:39.050Z,82.00
2018-07-24T01:07:08.171Z,81.50
2018-07-24T01:09:36.569Z,82.30
2018-07-24T01:12:04.973Z,81.70
2018-07-24T01:14:33.864Z,82.20
2018-07-24T01:17:02.281Z,82.40
2018-07-24T01:19:30.685Z,82.00
2018-07-24T01:21:59.071Z,82.30
2018-07-24T01:24:27.485Z,82.60
2018-07-24T01:26:55.883Z,82.40
2018-07-24T01:29:24.299Z,81.80
2018-07-24T01:31:53.129Z,81.80
2018-07-24T01:34:21.565Z,81.80
2018-07-24T01:36:49.965Z,81.50
2018-07-24T01:39:18.399Z,82.00
2018-07-24T01:41:46.807Z,82.50
2018-07-24T01:44:15.195Z,82.90
2018-07-24T01:46:43.623Z,82.60
2018-07-24T01:49:12.032Z,82.90
2018-07-24T01:51:40.437Z,82.90
2018-07-24T01:54:09.049Z,82.90
2018-07-24T01:56:37.453Z,83.30
2018-07-24T01:59:05.872Z,83.90
2018-07-24T02:01:34.665Z,84.30
2018-07-24T02:04:03.078Z,84.00
2018-07-24T02:06:31.497Z,83.80
2018-07-24T02:08:59.927Z,83.50
2018-07-24T02:11:28.408Z,83.00
2018-07-24T02:13:56.814Z,82.80
2018-07-24T02:16:25.222Z,82.20
2018-07-24T02:18:54.010Z,82.30
2018-07-24T02:21:22.458Z,83.30
2018-07-24T02:23:51.326Z,82.60
2018-07-24T02:26:20.352Z,83.40
2018-07-24T02:28:48.942Z,84.00
2018-07-24T02:31:17.601Z,84.00
2018-07-24T02:33:46.418Z,84.80
2018-07-24T02:36:14.816Z,86.00
2018-07-24T02:38:43.209Z,86.20
2018-07-24T02:41:11.885Z,86.80
2018-07-24T02:43:40.291Z,86.70
2018-07-24T02:46:08.735Z,86.70
2018-07-24T02:48:37.137Z,86.80
2018-07-24T02:51:05.515Z,86.90
2018-07-24T02:53:33.924Z,87.60
2018-07-24T02:56:02.331Z,87.70
2018-07-24T02:58:30.742Z,87.60
2018-07-24T03:00:59.169Z,87.80
2018-07-24T03:03:28.005Z,87.80
2018-07-24T03:05:56.435Z,87.50
2018-07-24T03:08:25.040Z,86.70
2018-07-24T03:10:53.445Z,86.70
2018-07-24T03:13:21.892Z,87.30
2018-07-24T03:15:50.332Z,87.70
2018-07-24T03:18:18.737Z,87.90
2018-07-24T03:20:47.442Z,87.80
2018-07-24T03:23:15.850Z,86.80
2018-07-24T03:25:44.253Z,86.70
2018-07-24T03:28:12.652Z,87.50
2018-07-24T03:30:41.062Z,87.70
2018-07-24T03:33:09.847Z,87.50
2018-07-24T03:35:38.280Z,86.70
2018-07-24T03:38:06.696Z,86.40
2018-07-24T03:40:35.094Z,86.30
2018-07-24T03:43:03.492Z,86.30
2018-07-24T03:45:32.770Z,86.30
2018-07-24T03:48:01.410Z,85.70
2018-07-24T03:50:29.816Z,85.60
2018-07-24T03:52:58.232Z,85.60
2018-07-24T03:55:27.205Z,85.20
2018-07-24T03:57:55.845Z,85.10
2018-07-24T04:00:24.210Z,85.40
2018-07-24T04:02:52.643Z,85.20
2018-07-24T04:05:21.054Z,85.20
2018-07-24T04:07:51.830Z,85.30
2018-07-24T04:10:21.666Z,85.10
2018-07-24T04:12:50.707Z,85.40
2018-07-24T04:15:19.101Z,85.70
2018-07-24T04:17:47.513Z,85.70
2018-07-24T04:20:15.919Z,85.60
2018-07-24T04:22:44.333Z,86.00
2018-07-24T04:25:12.733Z,87.70
2018-07-24T04:27:41.139Z,86.80
2018-07-24T04:30:09.542Z,85.00
2018-07-24T04:32:37.955Z,83.90
2018-07-24T04:35:06.490Z,83.50
2018-07-24T04:37:34.912Z,83.20
2018-07-24T04:40:03.372Z,82.00
2018-07-24T04:42:32.453Z,81.90
2018-07-24T04:45:00.857Z,81.10
2018-07-24T04:47:29.275Z,81.20
2018-07-24T04:49:57.685Z,80.40
2018-07-24T04:52:26.095Z,79.60
2018-07-24T04:54:54.873Z,78.90
2018-07-24T04:57:23.277Z,78.70
2018-07-24T04:59:51.831Z,79.20
2018-07-24T05:02:20.255Z,79.10
2018-07-24T05:04:48.764Z,79.60
2018-07-24T05:07:17.517Z,80.00
2018-07-24T05:09:46.744Z,80.30
2018-07-24T05:12:15.182Z,79.90
2018-07-24T05:14:43.607Z,79.90
2018-07-24T05:17:12.453Z,80.20
2018-07-24T05:19:40.890Z,80.90
2018-07-24T05:22:09.290Z,81.40
2018-07-24T05:24:38.119Z,81.50
2018-07-24T05:27:06.798Z,81.30
2018-07-24T05:29:35.191Z,81.40
2018-07-24T05:32:03.604Z,81.30
2018-07-24T05:34:32.008Z,81.00
2018-07-24T05:39:28.635Z,80.70
2018-07-24T05:41:57.022Z,80.60
2018-07-24T05:44:25.452Z,80.50
2018-07-24T05:46:53.862Z,80.00
2018-07-24T05:49:22.534Z,79.10
2018-07-24T05:51:50.947Z,77.80
2018-07-24T05:54:19.660Z,77.70
2018-07-24T05:56:48.061Z,76.60
2018-07-24T05:59:16.907Z,75.50
2018-07-24T06:01:45.310Z,74.60
2018-07-24T06:04:25.043Z,73.70
2018-07-24T06:06:53.495Z,73.20
2018-07-24T06:09:22.679Z,72.80
2018-07-24T06:11:51.087Z,72.10
2018-07-24T06:14:19.496Z,70.90
2018-07-24T06:16:47.920Z,69.90
2018-07-24T06:19:16.609Z,68.50
2018-07-24T06:21:45.027Z,67.90
2018-07-24T06:24:13.435Z,67.90
2018-07-24T06:28:11.077Z,67.60
2018-07-24T06:30:40.473Z,66.90
2018-07-24T06:33:09.127Z,66.50
2018-07-24T06:35:37.646Z,66.70
2018-07-24T06:38:06.053Z,67.70
2018-07-24T06:40:34.521Z,66.50
2018-07-24T06:43:02.935Z,66.20
2018-07-24T06:45:31.543Z,65.90
2018-07-24T06:47:59.939Z,66.10
2018-07-24T06:50:28.815Z,66.10
2018-07-24T06:52:57.668Z,65.40
2018-07-24T06:55:26.083Z,65.20
2018-07-24T06:57:54.474Z,64.80
2018-07-24T07:00:22.935Z,63.70
2018-07-24T07:02:51.339Z,63.20
2018-07-24T07:05:19.747Z,62.70
2018-07-24T07:10:16.526Z,62.50
2018-07-24T07:12:45.393Z,61.80
2018-07-24T07:15:13.835Z,61.40
2018-07-24T07:17:42.815Z,61.20
2018-07-24T07:20:11.221Z,61.30
2018-07-24T07:22:39.923Z,61.00
2018-07-24T07:25:08.339Z,60.40
2018-07-24T07:27:36.723Z,60.10
2018-07-24T07:30:05.749Z,59.80
2018-07-24T07:32:34.281Z,59.30
2018-07-24T07:35:02.661Z,58.70
2018-07-24T07:37:31.053Z,58.00
2018-07-24T07:40:00.312Z,57.70
2018-07-24T07:42:28.741Z,57.50
2018-07-24T07:44:57.300Z,57.50
2018-07-24T07:47:25.702Z,57.60
2018-07-24T07:49:54.140Z,57.70
2018-07-24T07:52:22.573Z,57.10
2018-07-24T07:54:51.394Z,56.10
2018-07-24T07:57:19.836Z,55.80
2018-07-24T07:59:48.234Z,55.30
2018-07-24T08:02:16.626Z,55.10
2018-07-24T08:04:45.051Z,55.00
2018-07-24T08:07:13.568Z,54.90
2018-07-24T08:09:42.094Z,54.60
2018-07-24T08:12:10.491Z,54.40
2018-07-24T08:14:38.919Z,54.20
2018-07-24T08:17:07.319Z,53.90
2018-07-24T08:19:35.737Z,54.30
2018-07-24T08:24:32.303Z,54.30
2018-07-24T08:27:00.693Z,54.20
2018-07-24T08:29:29.849Z,54.00
2018-07-24T08:31:58.463Z,53.50
2018-07-24T08:34:26.887Z,53.10
2018-07-24T08:36:55.922Z,52.80
2018-07-24T08:39:24.319Z,52.50
2018-07-24T08:41:52.745Z,52.50
2018-07-24T08:44:21.145Z,52.40
2018-07-24T08:46:49.552Z,52.30
2018-07-24T08:49:18.226Z,52.00
2018-07-24T08:51:46.675Z,51.60
2018-07-24T08:54:15.699Z,51.30
2018-07-24T08:56:44.145Z,51.00
2018-07-24T08:59:12.627Z,51.40
2018-07-24T09:01:41.042Z,51.00
2018-07-24T09:04:09.485Z,50.10
2018-07-24T09:06:37.857Z,50.00
2018-07-24T09:09:09.755Z,50.10
2018-07-24T09:11:38.620Z,50.00
2018-07-24T09:14:07.562Z,50.30
2018-07-24T09:16:36.461Z,49.70
2018-07-24T09:19:05.218Z,49.30
2018-07-24T09:21:34.065Z,49.30
2018-07-24T09:24:02.440Z,49.10
2018-07-24T09:26:30.842Z,48.50
2018-07-24T09:28:59.511Z,48.60
2018-07-24T09:31:27.924Z,48.10
2018-07-24T09:33:56.347Z,47.60
2018-07-24T09:36:24.963Z,47.70
2018-07-24T09:38:53.418Z,47.50
2018-07-24T09:41:21.826Z,47.40
2018-07-24T09:43:50.224Z,47.30
2018-07-24T09:46:19.121Z,46.80
2018-07-24T09:48:47.537Z,47.00
2018-07-24T09:51:15.930Z,47.10
2018-07-24T09:53:44.472Z,46.80
2018-07-24T09:56:12.874Z,46.50
2018-07-24T09:58:41.357Z,46.10
2018-07-24T10:01:15.149Z,46.20
2018-07-24T10:03:43.569Z,46.10
2018-07-24T10:06:11.957Z,46.20
2018-07-24T10:08:40.483Z,45.70
2018-07-24T10:11:09.486Z,45.90
2018-07-24T10:13:37.897Z,45.80
2018-07-24T10:16:06.907Z,45.80
2018-07-24T10:18:35.330Z,45.60
2018-07-24T10:21:03.733Z,45.70
2018-07-24T10:23:32.139Z,45.80
2018-07-24T10:26:00.563Z,45.60
2018-07-24T10:28:29.003Z,45.20
2018-07-24T10:30:57.564Z,45.40
2018-07-24T10:33:26.027Z,45.80
2018-07-24T10:38:22.127Z,46.10
2018-07-24T10:40:50.537Z,46.00
2018-07-24T10:43:18.913Z,45.90
2018-07-24T10:45:47.736Z,45.80
2018-07-24T10:48:16.305Z,46.00
2018-07-24T10:52:13.902Z,45.80
2018-07-24T10:54:42.289Z,45.30
2018-07-24T10:57:10.684Z,44.50
2018-07-24T10:59:39.081Z,44.60
2018-07-24T11:02:07.770Z,44.40
2018-07-24T11:04:36.226Z,44.00
2018-07-24T11:07:04.620Z,43.60
2018-07-24T11:09:33.020Z,43.10
2018-07-24T11:12:01.627Z,43.20
2018-07-24T11:14:30.022Z,43.40
2018-07-24T11:16:58.401Z,43.00
2018-07-24T11:19:26.783Z,43.40
2018-07-24T11:21:55.192Z,43.10
2018-07-24T11:24:23.590Z,42.60
2018-07-24T11:26:51.990Z,42.50
2018-07-24T11:29:20.469Z,41.90
2018-07-24T11:31:48.842Z,41.30
2018-07-24T11:34:17.282Z,40.60
2018-07-24T11:36:45.770Z,40.60
2018-07-24T11:39:14.168Z,40.90
2018-07-24T11:41:42.576Z,40.80
2018-07-24T11:44:11.006Z,41.30
2018-07-24T11:46:39.481Z,41.10
2018-07-24T11:49:08.260Z,40.90
2018-07-24T11:51:36.874Z,41.10
2018-07-24T11:54:05.253Z,41.00
2018-07-24T11:56:33.663Z,40.80
2018-07-24T11:59:02.086Z,40.60
2018-07-24T12:01:30.485Z,40.30
2018-07-24T12:03:58.903Z,40.20
2018-07-24T12:06:27.324Z,40.30
2018-07-24T12:08:55.724Z,40.60
2018-07-24T12:11:24.149Z,40.10
2018-07-24T12:13:52.535Z,40.00
2018-07-24T12:16:20.906Z,39.80
2018-07-24T12:18:49.311Z,39.60
2018-07-24T12:23:45.911Z,40.40
2018-07-24T12:26:14.369Z,41.00
2018-07-24T12:28:42.773Z,40.50
2018-07-24T12:31:11.846Z,39.60
2018-07-24T12:33:40.253Z,39.20
2018-07-24T12:36:08.789Z,39.50
2018-07-24T12:41:05.238Z,39.50
2018-07-24T12:43:34.328Z,39.40
2018-07-24T12:46:02.696Z,38.80
2018-07-24T12:48:31.288Z,38.80
2018-07-24T12:50:59.800Z,39.00
2018-07-24T12:53:28.192Z,39.50
2018-07-24T12:55:56.585Z,39.60
2018-07-24T12:58:24.980Z,40.00
2018-07-24T13:00:53.374Z,40.40
2018-07-24T13:03:21.764Z,40.70
2018-07-24T13:05:50.312Z,40.70
2018-07-24T13:08:18.725Z,41.40
2018-07-24T13:10:47.183Z,40.80
2018-07-24T13:13:15.526Z,40.20
2018-07-24T13:15:43.931Z,39.70
2018-07-24T13:18:12.317Z,38.70
2018-07-24T13:20:40.719Z,38.00
2018-07-24T13:23:09.129Z,37.50
2018-07-24T13:25:37.527Z,37.60
2018-07-24T13:28:05.932Z,37.00
2018-07-24T13:30:34.329Z,36.60
2018-07-24T13:33:02.779Z,36.80
2018-07-24T13:35:31.182Z,36.70
2018-07-24T13:37:59.938Z,36.70
2018-07-24T13:40:28.341Z,36.30
2018-07-24T13:42:56.754Z,36.40
2018-07-24T13:45:25.463Z,35.80
2018-07-24T13:47:53.906Z,35.50
2018-07-24T13:50:22.286Z,35.00
2018-07-24T13:52:50.697Z,35.00
2018-07-24T13:55:19.079Z,34.80
2018-07-24T13:57:47.500Z,34.50
2018-07-24T14:00:16.021Z,34.50
2018-07-24T14:05:12.539Z,34.40
2018-07-24T14:07:40.950Z,34.60
2018-07-24T14:12:37.437Z,35.10
2018-07-24T14:15:05.863Z,35.10
2018-07-24T14:17:34.245Z,35.40
2018-07-24T14:20:02.662Z,36.80
2018-07-24T14:22:31.082Z,36.70
2018-07-24T14:24:59.505Z,36.90
2018-07-24T14:27:27.924Z,37.30
2018-07-24T14:29:56.322Z,37.50
2018-07-24T14:32:24.735Z,37.60
2018-07-24T14:37:21.306Z,37.80
2018-07-24T14:39:49.710Z,37.80
2018-07-24T14:42:18.122Z,38.10
2018-07-24T14:44:46.522Z,38.50
2018-07-24T14:47:15.748Z,39.00
2018-07-24T14:49:44.134Z,39.60
2018-07-24T14:52:12.543Z,39.90
2018-07-24T14:54:40.956Z,40.10
2018-07-24T14:57:09.344Z,40.30
2018-07-24T14:59:37.744Z,40.70
2018-07-24T15:02:06.142Z,40.60
2018-07-24T15:04:34.607Z,40.90
2018-07-24T15:07:02.973Z,40.90
2018-07-24T15:11:59.619Z,41.20
2018-07-24T18:16:08.010Z,40.90
2018-07-24T18:18:36.613Z,42.00
2018-07-24T18:21:05.636Z,42.40
2018-07-24T18:23:34.323Z,42.60
2018-07-24T18:26:03.680Z,42.70
2018-07-24T18:28:32.390Z,42.60
2018-07-24T18:31:01.406Z,42.40
2018-07-24T18:33:30.730Z,42.50
2018-07-24T18:35:59.737Z,42.80
2018-07-24T18:38:28.423Z,42.90
2018-07-24T18:40:57.860Z,43.10
2018-07-24T18:43:26.855Z,43.20
2018-07-24T18:45:55.445Z,43.90
2018-07-24T18:48:24.342Z,44.10
2018-07-24T18:50:52.784Z,44.40
2018-07-24T18:53:21.283Z,44.60
2018-07-24T18:55:49.657Z,44.70
2018-07-24T18:58:18.245Z,44.90
2018-07-24T19:00:47.725Z,45.00
2018-07-24T19:03:16.974Z,45.40
2018-07-24T19:05:45.749Z,45.50
2018-07-24T19:08:15.167Z,45.80
2018-07-24T19:10:44.732Z,45.80
2018-07-24T19:13:13.687Z,45.80
2018-07-24T19:15:42.645Z,46.00
2018-07-24T19:18:11.441Z,46.30
2018-07-24T19:20:40.131Z,46.50
2018-07-24T19:23:08.715Z,46.80
2018-07-24T19:25:38.206Z,47.00
2018-07-24T19:28:07.218Z,47.30
2018-07-24T19:30:35.797Z,47.60
2018-07-24T19:33:05.055Z,47.90
2018-07-24T19:35:33.537Z,48.20
2018-07-24T19:38:02.513Z,48.50
2018-07-24T19:40:31.178Z,48.80
2018-07-24T19:43:00.062Z,49.00
2018-07-24T19:45:28.644Z,49.20
2018-07-24T19:47:57.329Z,49.50
2018-07-24T19:50:25.800Z,49.60
2018-07-24T19:52:54.187Z,49.70
2018-07-24T19:55:23.065Z,50.00
2018-07-24T19:57:52.523Z,50.20
2018-07-24T20:00:21.149Z,50.60
2018-07-24T20:02:50.000Z,50.90
2018-07-24T20:05:19.026Z,51.00
2018-07-24T20:07:47.770Z,51.10
2018-07-24T20:10:16.987Z,51.20
2018-07-24T20:12:45.966Z,51.30
2018-07-24T20:15:19.038Z,51.80
2018-07-24T20:17:48.476Z,51.50
2018-07-24T20:20:18.132Z,51.40
2018-07-24T20:22:47.654Z,51.50
2018-07-24T20:25:16.318Z,51.40
2018-07-24T20:27:45.617Z,51.30
2018-07-24T20:30:15.332Z,51.30
2018-07-24T20:32:43.970Z,51.90
2018-07-24T20:35:12.701Z,51.70
2018-07-24T20:37:41.235Z,51.90
2018-07-24T20:40:10.221Z,52.20
2018-07-24T20:42:38.859Z,52.30
2018-07-24T20:45:07.782Z,52.50
2018-07-24T20:47:38.303Z,52.50
2018-07-24T20:50:07.258Z,52.60
2018-07-24T20:52:35.822Z,52.70
2018-07-24T20:55:04.495Z,52.80
2018-07-24T20:57:34.185Z,53.00
2018-07-24T21:00:03.790Z,53.10
2018-07-24T21:02:33.049Z,53.10
2018-07-24T21:05:02.074Z,53.40
2018-07-24T21:07:30.498Z,53.60
2018-07-24T21:09:59.616Z,53.70
2018-07-24T21:12:28.461Z,53.80
